Terminal Aerodrome Forecast
Issued by NWS

Home | Current Version | Previous Version | Text Only | Print | Product List | Glossary On
Versions: 1 2 3 4 5 6 7 8 9 10 11 12 13 14 15 16 17 18 19
000
FTUS41 KBOX 180306 AAA
TAFBAF
TAF AMD
KBAF 180306Z 1803/1824 06004KT 3SM -FZRAPL OVC015
     FM180400 05004KT 2SM -FZRAPL OVC008
     FM180600 01004KT 2SM -RAPL OVC008
     FM181200 01006KT 2SM BR VCSH OVC008
     FM181900 01007KT 3SM BR VCSH OVC010
     FM182200 01006KT P6SM OVC010=

USA.gov is the U.S. government's official web portal to all federal, state and local government web resources and services.